Back to Top

Language: 

My Weather Underground Personal Weather Station Historical Data with Graphs...

Delerius Weather Station Historical Data
Daily Summary for March 19, 2017 Units:  Both    English   Metric
« Previous Day
Next Day »
Daily Weekly Monthly Yearly Custom
  High: Low: Average:
Temperature: 58.6 °F /  14.8 °C 49.6 °F /  9.8 °C 54.3 °F /  12.4 °C
Dew Point: 51.8 °F /  11 °C 46.0 °F /  7.8 °C 49.5 °F /  9.7 °C
Humidity: 93 % 77 % 84 %
Wind Speed: 25.0 mph /  40.2 km/h - 12.6 mph /  20.3 km/h
Wind Gust: 41.0 mph /  66 km/h - -
Wind:- - WSW
Pressure: 29.68 in /  1005 hPa 29.52 in /  999.5 hPa -
Precipitation: 0.01 in /  0.25 mm    
Historical Graphs
 
 
Tabular Data for March 19, 2017
Time Temperature Dew Point Pressure Wind Wind Speed Wind Gust Humidity Rainfall Rate (Hourly) solar Conditions
00:04 54.1 °F /  12.3 °C 51.3 °F /  10.7 °C 29.68 in /  1005 hPa WSW 11.0 mph /  17.7 km/h 23.0 mph /  37 km/h 90 % 0.00 in /  0 mm 0 W/m2
00:09 54.3 °F /  12.4 °C 51.4 °F /  10.8 °C 29.68 in /  1005 hPa WSW 11.0 mph /  17.7 km/h 22.0 mph /  35.4 km/h 90 % 0.00 in /  0 mm 0 W/m2
00:14 54.5 °F /  12.5 °C 51.6 °F /  10.9 °C 29.67 in /  1004.6 hPa WSW 13.0 mph /  20.9 km/h 22.0 mph /  35.4 km/h 90 % 0.00 in /  0 mm 0 W/m2
00:19 54.7 °F /  12.6 °C 51.5 °F /  10.8 °C 29.67 in /  1004.6 hPa WSW 12.0 mph /  19.3 km/h 22.0 mph /  35.4 km/h 89 % 0.00 in /  0 mm 0 W/m2
00:24 54.7 °F /  12.6 °C 51.5 °F /  10.8 °C 29.67 in /  1004.6 hPa WSW 11.0 mph /  17.7 km/h 20.0 mph /  32.2 km/h 89 % 0.00 in /  0 mm 0 W/m2
00:29 54.9 °F /  12.7 °C 51.7 °F /  10.9 °C 29.67 in /  1004.6 hPa WSW 11.0 mph /  17.7 km/h 22.0 mph /  35.4 km/h 89 % 0.00 in /  0 mm 0 W/m2
00:34 54.9 °F /  12.7 °C 51.4 °F /  10.8 °C 29.67 in /  1004.6 hPa WSW 11.0 mph /  17.7 km/h 22.0 mph /  35.4 km/h 88 % 0.00 in /  0 mm 0 W/m2
00:39 54.9 °F /  12.7 °C 51.4 °F /  10.8 °C 29.67 in /  1004.6 hPa WSW 12.0 mph /  19.3 km/h 24.0 mph /  38.6 km/h 88 % 0.00 in /  0 mm 0 W/m2
00:45 55.0 °F /  12.8 °C 51.2 °F /  10.7 °C 29.66 in /  1004.3 hPa WSW 14.0 mph /  22.5 km/h 24.0 mph /  38.6 km/h 87 % 0.00 in /  0 mm 0 W/m2
00:50 55.2 °F /  12.9 °C 51.4 °F /  10.8 °C 29.66 in /  1004.3 hPa WSW 14.0 mph /  22.5 km/h 25.0 mph /  40.2 km/h 87 % 0.00 in /  0 mm 0 W/m2
00:55 55.2 °F /  12.9 °C 51.4 °F /  10.8 °C 29.66 in /  1004.3 hPa WSW 13.0 mph /  20.9 km/h 25.0 mph /  40.2 km/h 87 % 0.00 in /  0 mm 0 W/m2
01:00 55.2 °F /  12.9 °C 51.4 °F /  10.8 °C 29.66 in /  1004.3 hPa WSW 13.0 mph /  20.9 km/h 24.0 mph /  38.6 km/h 87 % 0.00 in /  0 mm 0 W/m2
01:05 55.2 °F /  12.9 °C 51.4 °F /  10.8 °C 29.67 in /  1004.6 hPa WSW 11.0 mph /  17.7 km/h 20.0 mph /  32.2 km/h 87 % 0.00 in /  0 mm 0 W/m2
01:10 55.2 °F /  12.9 °C 51.4 °F /  10.8 °C 29.67 in /  1004.6 hPa WSW 11.0 mph /  17.7 km/h 19.0 mph /  30.6 km/h 87 % 0.00 in /  0 mm 0 W/m2
01:15 55.2 °F /  12.9 °C 51.1 °F /  10.6 °C 29.66 in /  1004.3 hPa WSW 11.0 mph /  17.7 km/h 20.0 mph /  32.2 km/h 86 % 0.00 in /  0 mm 0 W/m2
01:20 55.2 °F /  12.9 °C 51.1 °F /  10.6 °C 29.66 in /  1004.3 hPa WSW 11.0 mph /  17.7 km/h 22.0 mph /  35.4 km/h 86 % 0.00 in /  0 mm 0 W/m2
01:25 55.2 °F /  12.9 °C 51.1 °F /  10.6 °C 29.67 in /  1004.6 hPa WSW 12.0 mph /  19.3 km/h 22.0 mph /  35.4 km/h 86 % 0.00 in /  0 mm 0 W/m2
01:30 55.2 °F /  12.9 °C 51.1 °F /  10.6 °C 29.66 in /  1004.3 hPa West 13.0 mph /  20.9 km/h 21.0 mph /  33.8 km/h 86 % 0.00 in /  0 mm 0 W/m2
01:35 55.2 °F /  12.9 °C 51.1 °F /  10.6 °C 29.66 in /  1004.3 hPa WSW 11.0 mph /  17.7 km/h 21.0 mph /  33.8 km/h 86 % 0.00 in /  0 mm 0 W/m2
01:40 55.2 °F /  12.9 °C 50.8 °F /  10.4 °C 29.66 in /  1004.3 hPa WSW 11.0 mph /  17.7 km/h 20.0 mph /  32.2 km/h 85 % 0.00 in /  0 mm 0 W/m2
01:45 55.2 °F /  12.9 °C 50.8 °F /  10.4 °C 29.66 in /  1004.3 hPa WSW 13.0 mph /  20.9 km/h 24.0 mph /  38.6 km/h 85 % 0.00 in /  0 mm 0 W/m2
01:50 55.2 °F /  12.9 °C 50.5 °F /  10.3 °C 29.66 in /  1004.3 hPa WSW 14.0 mph /  22.5 km/h 24.0 mph /  38.6 km/h 84 % 0.00 in /  0 mm 0 W/m2
01:55 55.2 °F /  12.9 °C 50.5 °F /  10.3 °C 29.65 in /  1003.9 hPa WSW 16.0 mph /  25.7 km/h 27.0 mph /  43.5 km/h 84 % 0.00 in /  0 mm 0 W/m2
02:00 55.2 °F /  12.9 °C 50.5 °F /  10.3 °C 29.64 in /  1003.6 hPa WSW 16.0 mph /  25.7 km/h 27.0 mph /  43.5 km/h 84 % 0.00 in /  0 mm 0 W/m2
02:05 55.0 °F /  12.8 °C 50.3 °F /  10.2 °C 29.65 in /  1003.9 hPa WSW 15.0 mph /  24.1 km/h 25.0 mph /  40.2 km/h 84 % 0.00 in /  0 mm 0 W/m2
02:10 55.0 °F /  12.8 °C 50.3 °F /  10.2 °C 29.64 in /  1003.6 hPa WSW 17.0 mph /  27.4 km/h 28.0 mph /  45.1 km/h 84 % 0.00 in /  0 mm 0 W/m2
02:15 54.9 °F /  12.7 °C 50.4 °F /  10.2 °C 29.63 in /  1003.3 hPa WSW 16.0 mph /  25.7 km/h 28.0 mph /  45.1 km/h 85 % 0.00 in /  0 mm 0 W/m2
02:20 54.7 °F /  12.6 °C 50.3 °F /  10.2 °C 29.63 in /  1003.3 hPa WSW 14.0 mph /  22.5 km/h 24.0 mph /  38.6 km/h 85 % 0.00 in /  0 mm 0 W/m2
02:25 54.7 °F /  12.6 °C 49.9 °F /  9.9 °C 29.63 in /  1003.3 hPa WSW 14.0 mph /  22.5 km/h 22.0 mph /  35.4 km/h 84 % 0.00 in /  0 mm 0 W/m2
02:30 54.5 °F /  12.5 °C 49.8 °F /  9.9 °C 29.63 in /  1003.3 hPa WSW 14.0 mph /  22.5 km/h 23.0 mph /  37 km/h 84 % 0.00 in /  0 mm 0 W/m2
02:35 54.3 °F /  12.4 °C 49.9 °F /  9.9 °C 29.63 in /  1003.3 hPa WSW 13.0 mph /  20.9 km/h 23.0 mph /  37 km/h 85 % 0.00 in /  0 mm 0 W/m2
02:40 54.1 °F /  12.3 °C 49.7 °F /  9.8 °C 29.63 in /  1003.3 hPa WSW 12.0 mph /  19.3 km/h 23.0 mph /  37 km/h 85 % 0.00 in /  0 mm 0 W/m2
02:42 54.1 °F /  12.3 °C 49.7 °F /  9.8 °C 29.63 in /  1003.3 hPa WSW 12.0 mph /  19.3 km/h 23.0 mph /  37 km/h 85 % 0.00 in /  0 mm 0 W/m2
02:47 54.0 °F /  12.2 °C 49.6 °F /  9.8 °C 29.63 in /  1003.3 hPa WSW 13.0 mph /  20.9 km/h 25.0 mph /  40.2 km/h 85 % 0.00 in /  0 mm 0 W/m2
02:52 54.0 °F /  12.2 °C 49.6 °F /  9.8 °C 29.63 in /  1003.3 hPa WSW 13.0 mph /  20.9 km/h 25.0 mph /  40.2 km/h 85 % 0.00 in /  0 mm 0 W/m2
02:57 54.0 °F /  12.2 °C 49.6 °F /  9.8 °C 29.62 in /  1002.9 hPa WSW 14.0 mph /  22.5 km/h 26.0 mph /  41.8 km/h 85 % 0.00 in /  0 mm 0 W/m2
03:02 54.0 °F /  12.2 °C 49.6 °F /  9.8 °C 29.62 in /  1002.9 hPa WSW 14.0 mph /  22.5 km/h 26.0 mph /  41.8 km/h 85 % 0.00 in /  0 mm 0 W/m2
03:07 54.0 °F /  12.2 °C 49.6 °F /  9.8 °C 29.62 in /  1002.9 hPa WSW 13.0 mph /  20.9 km/h 21.0 mph /  33.8 km/h 85 % 0.00 in /  0 mm 0 W/m2
03:12 54.0 °F /  12.2 °C 49.2 °F /  9.6 °C 29.62 in /  1002.9 hPa WSW 15.0 mph /  24.1 km/h 26.0 mph /  41.8 km/h 84 % 0.00 in /  0 mm 0 W/m2
03:17 54.0 °F /  12.2 °C 49.2 °F /  9.6 °C 29.62 in /  1002.9 hPa WSW 15.0 mph /  24.1 km/h 26.0 mph /  41.8 km/h 84 % 0.00 in /  0 mm 0 W/m2
03:22 54.0 °F /  12.2 °C 49.2 °F /  9.6 °C 29.62 in /  1002.9 hPa WSW 16.0 mph /  25.7 km/h 31.0 mph /  49.9 km/h 84 % 0.00 in /  0 mm 0 W/m2
03:27 54.0 °F /  12.2 °C 49.2 °F /  9.6 °C 29.62 in /  1002.9 hPa West 16.0 mph /  25.7 km/h 31.0 mph /  49.9 km/h 84 % 0.01 in /  0.25 mm 0 W/m2
03:32 54.0 °F /  12.2 °C 49.6 °F /  9.8 °C 29.61 in /  1002.6 hPa West 14.0 mph /  22.5 km/h 25.0 mph /  40.2 km/h 85 % 0.01 in /  0.25 mm 0 W/m2
03:37 53.8 °F /  12.1 °C 49.4 °F /  9.7 °C 29.61 in /  1002.6 hPa WSW 13.0 mph /  20.9 km/h 25.0 mph /  40.2 km/h 85 % 0.01 in /  0.25 mm 0 W/m2
03:42 53.8 °F /  12.1 °C 49.4 °F /  9.7 °C 29.62 in /  1002.9 hPa WSW 14.0 mph /  22.5 km/h 25.0 mph /  40.2 km/h 85 % 0.01 in /  0.25 mm 0 W/m2
03:47 53.8 °F /  12.1 °C 49.4 °F /  9.7 °C 29.61 in /  1002.6 hPa WSW 15.0 mph /  24.1 km/h 30.0 mph /  48.3 km/h 85 % 0.01 in /  0.25 mm 0 W/m2
03:52 53.8 °F /  12.1 °C 49.4 °F /  9.7 °C 29.61 in /  1002.6 hPa WSW 15.0 mph /  24.1 km/h 30.0 mph /  48.3 km/h 85 % 0.01 in /  0.25 mm 0 W/m2
03:58 53.6 °F /  12 °C 49.2 °F /  9.6 °C 29.61 in /  1002.6 hPa WSW 14.0 mph /  22.5 km/h 25.0 mph /  40.2 km/h 85 % 0.01 in /  0.25 mm 0 W/m2
04:03 53.4 °F /  11.9 °C 49.0 °F /  9.4 °C 29.61 in /  1002.6 hPa WSW 15.0 mph /  24.1 km/h 26.0 mph /  41.8 km/h 85 % 0.01 in /  0.25 mm 0 W/m2
04:08 53.4 °F /  11.9 °C 49.0 °F /  9.4 °C 29.60 in /  1002.3 hPa WSW 16.0 mph /  25.7 km/h 26.0 mph /  41.8 km/h 85 % 0.01 in /  0.25 mm 0 W/m2
04:13 53.4 °F /  11.9 °C 49.0 °F /  9.4 °C 29.60 in /  1002.3 hPa WSW 14.0 mph /  22.5 km/h 24.0 mph /  38.6 km/h 85 % 0.01 in /  0.25 mm 0 W/m2
04:18 53.4 °F /  11.9 °C 49.0 °F /  9.4 °C 29.60 in /  1002.3 hPa WSW 13.0 mph /  20.9 km/h 26.0 mph /  41.8 km/h 85 % 0.01 in /  0.25 mm 0 W/m2
04:23 53.4 °F /  11.9 °C 49.0 °F /  9.4 °C 29.60 in /  1002.3 hPa WSW 12.0 mph /  19.3 km/h 26.0 mph /  41.8 km/h 85 % 0.00 in /  0 mm 0 W/m2
04:28 53.4 °F /  11.9 °C 49.0 °F /  9.4 °C 29.60 in /  1002.3 hPa WSW 13.0 mph /  20.9 km/h 24.0 mph /  38.6 km/h 85 % 0.00 in /  0 mm 0 W/m2
04:33 53.2 °F /  11.8 °C 48.8 °F /  9.3 °C 29.60 in /  1002.3 hPa WSW 15.0 mph /  24.1 km/h 28.0 mph /  45.1 km/h 85 % 0.00 in /  0 mm 0 W/m2
04:38 53.2 °F /  11.8 °C 48.8 °F /  9.3 °C 29.61 in /  1002.6 hPa WSW 17.0 mph /  27.4 km/h 29.0 mph /  46.7 km/h 85 % 0.00 in /  0 mm 0 W/m2
04:43 53.2 °F /  11.8 °C 48.8 °F /  9.3 °C 29.61 in /  1002.6 hPa WSW 18.0 mph /  29 km/h 31.0 mph /  49.9 km/h 85 % 0.00 in /  0 mm 0 W/m2
04:48 53.2 °F /  11.8 °C 48.8 °F /  9.3 °C 29.60 in /  1002.3 hPa WSW 16.0 mph /  25.7 km/h 31.0 mph /  49.9 km/h 85 % 0.00 in /  0 mm 0 W/m2
04:53 53.1 °F /  11.7 °C 48.7 °F /  9.3 °C 29.60 in /  1002.3 hPa WSW 16.0 mph /  25.7 km/h 28.0 mph /  45.1 km/h 85 % 0.00 in /  0 mm 0 W/m2
04:58 53.1 °F /  11.7 °C 48.7 °F /  9.3 °C 29.60 in /  1002.3 hPa WSW 16.0 mph /  25.7 km/h 28.0 mph /  45.1 km/h 85 % 0.00 in /  0 mm 0 W/m2
05:03 52.9 °F /  11.6 °C 48.5 °F /  9.2 °C 29.61 in /  1002.6 hPa WSW 14.0 mph /  22.5 km/h 25.0 mph /  40.2 km/h 85 % 0.00 in /  0 mm 0 W/m2
05:08 52.9 °F /  11.6 °C 48.5 °F /  9.2 °C 29.60 in /  1002.3 hPa WSW 14.0 mph /  22.5 km/h 25.0 mph /  40.2 km/h 85 % 0.00 in /  0 mm 0 W/m2
05:13 52.9 °F /  11.6 °C 48.5 °F /  9.2 °C 29.60 in /  1002.3 hPa WSW 14.0 mph /  22.5 km/h 27.0 mph /  43.5 km/h 85 % 0.00 in /  0 mm 0 W/m2
05:18 52.9 °F /  11.6 °C 48.5 °F /  9.2 °C 29.60 in /  1002.3 hPa WSW 15.0 mph /  24.1 km/h 27.0 mph /  43.5 km/h 85 % 0.00 in /  0 mm 0 W/m2
05:23 52.9 °F /  11.6 °C 48.5 °F /  9.2 °C 29.60 in /  1002.3 hPa WSW 16.0 mph /  25.7 km/h 24.0 mph /  38.6 km/h 85 % 0.00 in /  0 mm 0 W/m2
05:28 52.9 °F /  11.6 °C 48.5 °F /  9.2 °C 29.60 in /  1002.3 hPa WSW 15.0 mph /  24.1 km/h 25.0 mph /  40.2 km/h 85 % 0.00 in /  0 mm 0 W/m2
05:33 52.7 °F /  11.5 °C 48.3 °F /  9.1 °C 29.60 in /  1002.3 hPa WSW 14.0 mph /  22.5 km/h 25.0 mph /  40.2 km/h 85 % 0.00 in /  0 mm 0 W/m2
05:38 52.7 °F /  11.5 °C 48.3 °F /  9.1 °C 29.60 in /  1002.3 hPa WSW 14.0 mph /  22.5 km/h 24.0 mph /  38.6 km/h 85 % 0.00 in /  0 mm 0 W/m2
05:43 52.5 °F /  11.4 °C 48.1 °F /  8.9 °C 29.60 in /  1002.3 hPa WSW 14.0 mph /  22.5 km/h 25.0 mph /  40.2 km/h 85 % 0.00 in /  0 mm 0 W/m2
05:48 52.5 °F /  11.4 °C 48.1 °F /  8.9 °C 29.60 in /  1002.3 hPa WSW 12.0 mph /  19.3 km/h 25.0 mph /  40.2 km/h 85 % 0.00 in /  0 mm 0 W/m2
05:53 52.5 °F /  11.4 °C 48.1 °F /  8.9 °C 29.60 in /  1002.3 hPa WSW 13.0 mph /  20.9 km/h 24.0 mph /  38.6 km/h 85 % 0.00 in /  0 mm 0 W/m2
05:58 52.5 °F /  11.4 °C 48.5 °F /  9.2 °C 29.60 in /  1002.3 hPa WSW 15.0 mph /  24.1 km/h 24.0 mph /  38.6 km/h 86 % 0.00 in /  0 mm 0 W/m2
06:03 52.3 °F /  11.3 °C 48.3 °F /  9.1 °C 29.60 in /  1002.3 hPa WSW 14.0 mph /  22.5 km/h 24.0 mph /  38.6 km/h 86 % 0.00 in /  0 mm 0 W/m2
06:08 52.3 °F /  11.3 °C 48.3 °F /  9.1 °C 29.60 in /  1002.3 hPa WSW 15.0 mph /  24.1 km/h 30.0 mph /  48.3 km/h 86 % 0.00 in /  0 mm 0 W/m2
06:13 52.3 °F /  11.3 °C 48.3 °F /  9.1 °C 29.60 in /  1002.3 hPa WSW 17.0 mph /  27.4 km/h 30.0 mph /  48.3 km/h 86 % 0.00 in /  0 mm 0 W/m2
06:18 52.3 °F /  11.3 °C 48.3 °F /  9.1 °C 29.60 in /  1002.3 hPa WSW 17.0 mph /  27.4 km/h 30.0 mph /  48.3 km/h 86 % 0.00 in /  0 mm 0 W/m2
06:23 52.3 °F /  11.3 °C 48.3 °F /  9.1 °C 29.60 in /  1002.3 hPa WSW 16.0 mph /  25.7 km/h 28.0 mph /  45.1 km/h 86 % 0.00 in /  0 mm 5 W/m2
06:28 52.2 °F /  11.2 °C 48.1 °F /  8.9 °C 29.60 in /  1002.3 hPa WSW 15.0 mph /  24.1 km/h 27.0 mph /  43.5 km/h 86 % 0.00 in /  0 mm 5 W/m2
06:33 52.2 °F /  11.2 °C 48.1 °F /  8.9 °C 29.60 in /  1002.3 hPa WSW 14.0 mph /  22.5 km/h 23.0 mph /  37 km/h 86 % 0.00 in /  0 mm 7 W/m2
06:38 52.2 °F /  11.2 °C 48.1 °F /  8.9 °C 29.61 in /  1002.6 hPa WSW 14.0 mph /  22.5 km/h 25.0 mph /  40.2 km/h 86 % 0.00 in /  0 mm 7 W/m2
06:43 52.2 °F /  11.2 °C 48.1 °F /  8.9 °C 29.60 in /  1002.3 hPa WSW 14.0 mph /  22.5 km/h 25.0 mph /  40.2 km/h 86 % 0.00 in /  0 mm 7 W/m2
06:48 52.3 °F /  11.3 °C 48.3 °F /  9.1 °C 29.60 in /  1002.3 hPa WSW 13.0 mph /  20.9 km/h 25.0 mph /  40.2 km/h 86 % 0.00 in /  0 mm 11 W/m2
06:53 52.3 °F /  11.3 °C 48.3 °F /  9.1 °C 29.60 in /  1002.3 hPa WSW 13.0 mph /  20.9 km/h 25.0 mph /  40.2 km/h 86 % 0.00 in /  0 mm 30 W/m2
06:58 52.3 °F /  11.3 °C 48.3 °F /  9.1 °C 29.60 in /  1002.3 hPa WSW 15.0 mph /  24.1 km/h 27.0 mph /  43.5 km/h 86 % 0.00 in /  0 mm 18 W/m2
07:03 52.5 °F /  11.4 °C 48.5 °F /  9.2 °C 29.59 in /  1001.9 hPa WSW 15.0 mph /  24.1 km/h 27.0 mph /  43.5 km/h 86 % 0.00 in /  0 mm 26 W/m2
07:08 52.5 °F /  11.4 °C 48.5 °F /  9.2 °C 29.59 in /  1001.9 hPa WSW 13.0 mph /  20.9 km/h 24.0 mph /  38.6 km/h 86 % 0.00 in /  0 mm 28 W/m2
07:13 52.3 °F /  11.3 °C 48.3 °F /  9.1 °C 29.59 in /  1001.9 hPa WSW 14.0 mph /  22.5 km/h 27.0 mph /  43.5 km/h 86 % 0.00 in /  0 mm 30 W/m2
07:18 52.3 °F /  11.3 °C 48.3 °F /  9.1 °C 29.59 in /  1001.9 hPa WSW 14.0 mph /  22.5 km/h 27.0 mph /  43.5 km/h 86 % 0.00 in /  0 mm 19 W/m2
07:23 52.3 °F /  11.3 °C 48.3 °F /  9.1 °C 29.59 in /  1001.9 hPa SW 13.0 mph /  20.9 km/h 23.0 mph /  37 km/h 86 % 0.00 in /  0 mm 26 W/m2
07:28 52.5 °F /  11.4 °C 48.5 °F /  9.2 °C 29.58 in /  1001.6 hPa SW 14.0 mph /  22.5 km/h 25.0 mph /  40.2 km/h 86 % 0.00 in /  0 mm 19 W/m2
07:33 52.5 °F /  11.4 °C 48.5 °F /  9.2 °C 29.58 in /  1001.6 hPa SW 15.0 mph /  24.1 km/h 30.0 mph /  48.3 km/h 86 % 0.00 in /  0 mm 28 W/m2
07:38 52.5 °F /  11.4 °C 48.5 °F /  9.2 °C 29.58 in /  1001.6 hPa WSW 14.0 mph /  22.5 km/h 30.0 mph /  48.3 km/h 86 % 0.00 in /  0 mm 30 W/m2
07:43 52.5 °F /  11.4 °C 48.8 °F /  9.3 °C 29.58 in /  1001.6 hPa SW 13.0 mph /  20.9 km/h 23.0 mph /  37 km/h 87 % 0.00 in /  0 mm 19 W/m2
07:48 52.5 °F /  11.4 °C 48.5 °F /  9.2 °C 29.58 in /  1001.6 hPa SW 14.0 mph /  22.5 km/h 28.0 mph /  45.1 km/h 86 % 0.00 in /  0 mm 39 W/m2
07:53 52.5 °F /  11.4 °C 48.8 °F /  9.3 °C 29.58 in /  1001.6 hPa SW 15.0 mph /  24.1 km/h 29.0 mph /  46.7 km/h 87 % 0.00 in /  0 mm 44 W/m2
07:58 52.5 °F /  11.4 °C 48.8 °F /  9.3 °C 29.58 in /  1001.6 hPa SW 15.0 mph /  24.1 km/h 29.0 mph /  46.7 km/h 87 % 0.00 in /  0 mm 76 W/m2
08:03 52.5 °F /  11.4 °C 48.8 °F /  9.3 °C 29.58 in /  1001.6 hPa SW 16.0 mph /  25.7 km/h 25.0 mph /  40.2 km/h 87 % 0.00 in /  0 mm 65 W/m2
08:08 52.7 °F /  11.5 °C 48.9 °F /  9.4 °C 29.59 in /  1001.9 hPa SW 16.0 mph /  25.7 km/h 30.0 mph /  48.3 km/h 87 % 0.00 in /  0 mm 39 W/m2
08:13 52.7 °F /  11.5 °C 48.9 °F /  9.4 °C 29.58 in /  1001.6 hPa SW 14.0 mph /  22.5 km/h 30.0 mph /  48.3 km/h 87 % 0.00 in /  0 mm 49 W/m2
08:18 52.7 °F /  11.5 °C 48.9 °F /  9.4 °C 29.58 in /  1001.6 hPa WSW 13.0 mph /  20.9 km/h 25.0 mph /  40.2 km/h 87 % 0.00 in /  0 mm 58 W/m2
08:23 52.7 °F /  11.5 °C 48.9 °F /  9.4 °C 29.58 in /  1001.6 hPa WSW 14.0 mph /  22.5 km/h 29.0 mph /  46.7 km/h 87 % 0.00 in /  0 mm 81 W/m2
08:28 52.9 °F /  11.6 °C 49.1 °F /  9.5 °C 29.57 in /  1001.2 hPa SW 14.0 mph /  22.5 km/h 29.0 mph /  46.7 km/h 87 % 0.00 in /  0 mm 111 W/m2
08:33 53.1 °F /  11.7 °C 49.3 °F /  9.6 °C 29.57 in /  1001.2 hPa SW 12.0 mph /  19.3 km/h 25.0 mph /  40.2 km/h 87 % 0.00 in /  0 mm 121 W/m2
08:38 53.1 °F /  11.7 °C 49.3 °F /  9.6 °C 29.57 in /  1001.2 hPa SW 12.0 mph /  19.3 km/h 21.0 mph /  33.8 km/h 87 % 0.00 in /  0 mm 76 W/m2
08:43 53.2 °F /  11.8 °C 49.5 °F /  9.7 °C 29.57 in /  1001.2 hPa WSW 15.0 mph /  24.1 km/h 27.0 mph /  43.5 km/h 87 % 0.00 in /  0 mm 79 W/m2
08:48 53.4 °F /  11.9 °C 49.3 °F /  9.6 °C 29.58 in /  1001.6 hPa WSW 15.0 mph /  24.1 km/h 28.0 mph /  45.1 km/h 86 % 0.00 in /  0 mm 120 W/m2
08:53 53.4 °F /  11.9 °C 49.3 °F /  9.6 °C 29.57 in /  1001.2 hPa WSW 15.0 mph /  24.1 km/h 28.0 mph /  45.1 km/h 86 % 0.00 in /  0 mm 127 W/m2
08:59 53.6 °F /  12 °C 49.5 °F /  9.7 °C 29.57 in /  1001.2 hPa WSW 16.0 mph /  25.7 km/h 28.0 mph /  45.1 km/h 86 % 0.00 in /  0 mm 84 W/m2
09:01 53.6 °F /  12 °C 49.5 °F /  9.7 °C 29.57 in /  1001.2 hPa WSW 16.0 mph /  25.7 km/h 28.0 mph /  45.1 km/h 86 % 0.00 in /  0 mm 123 W/m2
09:06 53.8 °F /  12.1 °C 49.7 °F /  9.8 °C 29.57 in /  1001.2 hPa WSW 16.0 mph /  25.7 km/h 28.0 mph /  45.1 km/h 86 % 0.00 in /  0 mm 100 W/m2
09:11 54.0 °F /  12.2 °C 49.6 °F /  9.8 °C 29.57 in /  1001.2 hPa WSW 16.0 mph /  25.7 km/h 26.0 mph /  41.8 km/h 85 % 0.00 in /  0 mm 127 W/m2
09:16 54.0 °F /  12.2 °C 49.6 °F /  9.8 °C 29.58 in /  1001.6 hPa WSW 16.0 mph /  25.7 km/h 26.0 mph /  41.8 km/h 85 % 0.00 in /  0 mm 56 W/m2
09:21 54.1 °F /  12.3 °C 49.7 °F /  9.8 °C 29.57 in /  1001.2 hPa WSW 13.0 mph /  20.9 km/h 23.0 mph /  37 km/h 85 % 0.00 in /  0 mm 95 W/m2
09:26 54.0 °F /  12.2 °C 49.6 °F /  9.8 °C 29.57 in /  1001.2 hPa WSW 13.0 mph /  20.9 km/h 22.0 mph /  35.4 km/h 85 % 0.00 in /  0 mm 90 W/m2
09:31 54.1 °F /  12.3 °C 49.7 °F /  9.8 °C 29.57 in /  1001.2 hPa WSW 14.0 mph /  22.5 km/h 24.0 mph /  38.6 km/h 85 % 0.00 in /  0 mm 111 W/m2
09:36 54.1 °F /  12.3 °C 49.7 °F /  9.8 °C 29.57 in /  1001.2 hPa WSW 15.0 mph /  24.1 km/h 28.0 mph /  45.1 km/h 85 % 0.00 in /  0 mm 121 W/m2
09:41 54.1 °F /  12.3 °C 49.7 °F /  9.8 °C 29.57 in /  1001.2 hPa WSW 14.0 mph /  22.5 km/h 28.0 mph /  45.1 km/h 85 % 0.00 in /  0 mm 70 W/m2
09:46 54.1 °F /  12.3 °C 49.7 °F /  9.8 °C 29.57 in /  1001.2 hPa WSW 14.0 mph /  22.5 km/h 27.0 mph /  43.5 km/h 85 % 0.00 in /  0 mm 142 W/m2
09:51 54.1 °F /  12.3 °C 49.7 °F /  9.8 °C 29.57 in /  1001.2 hPa WSW 14.0 mph /  22.5 km/h 27.0 mph /  43.5 km/h 85 % 0.00 in /  0 mm 97 W/m2
09:56 54.3 °F /  12.4 °C 49.9 °F /  9.9 °C 29.57 in /  1001.2 hPa WSW 13.0 mph /  20.9 km/h 28.0 mph /  45.1 km/h 85 % 0.00 in /  0 mm 139 W/m2
10:01 54.3 °F /  12.4 °C 49.9 °F /  9.9 °C 29.56 in /  1000.9 hPa WSW 15.0 mph /  24.1 km/h 28.0 mph /  45.1 km/h 85 % 0.00 in /  0 mm 200 W/m2
10:06 54.7 °F /  12.6 °C 50.3 °F /  10.2 °C 29.56 in /  1000.9 hPa WSW 17.0 mph /  27.4 km/h 30.0 mph /  48.3 km/h 85 % 0.00 in /  0 mm 142 W/m2
10:11 54.7 °F /  12.6 °C 49.9 °F /  9.9 °C 29.57 in /  1001.2 hPa WSW 17.0 mph /  27.4 km/h 30.0 mph /  48.3 km/h 84 % 0.00 in /  0 mm 116 W/m2
10:16 54.7 °F /  12.6 °C 49.9 °F /  9.9 °C 29.57 in /  1001.2 hPa WSW 15.0 mph /  24.1 km/h 25.0 mph /  40.2 km/h 84 % 0.00 in /  0 mm 142 W/m2
10:21 54.7 °F /  12.6 °C 50.3 °F /  10.2 °C 29.57 in /  1001.2 hPa WSW 12.0 mph /  19.3 km/h 24.0 mph /  38.6 km/h 85 % 0.00 in /  0 mm 104 W/m2
10:26 54.7 °F /  12.6 °C 49.9 °F /  9.9 °C 29.57 in /  1001.2 hPa WSW 12.0 mph /  19.3 km/h 23.0 mph /  37 km/h 84 % 0.00 in /  0 mm 102 W/m2
10:31 54.9 °F /  12.7 °C 50.1 °F /  10.1 °C 29.57 in /  1001.2 hPa WSW 14.0 mph /  22.5 km/h 26.0 mph /  41.8 km/h 84 % 0.00 in /  0 mm 114 W/m2
10:36 54.7 °F /  12.6 °C 49.9 °F /  9.9 °C 29.57 in /  1001.2 hPa WSW 13.0 mph /  20.9 km/h 26.0 mph /  41.8 km/h 84 % 0.00 in /  0 mm 127 W/m2
10:41 54.9 °F /  12.7 °C 50.1 °F /  10.1 °C 29.57 in /  1001.2 hPa WSW 13.0 mph /  20.9 km/h 24.0 mph /  38.6 km/h 84 % 0.00 in /  0 mm 102 W/m2
10:46 54.9 °F /  12.7 °C 50.1 °F /  10.1 °C 29.57 in /  1001.2 hPa WSW 13.0 mph /  20.9 km/h 25.0 mph /  40.2 km/h 84 % 0.00 in /  0 mm 207 W/m2
10:51 55.0 °F /  12.8 °C 50.0 °F /  10 °C 29.57 in /  1001.2 hPa WSW 15.0 mph /  24.1 km/h 27.0 mph /  43.5 km/h 83 % 0.00 in /  0 mm 62 W/m2
10:56 55.2 °F /  12.9 °C 50.1 °F /  10.1 °C 29.57 in /  1001.2 hPa WSW 14.0 mph /  22.5 km/h 27.0 mph /  43.5 km/h 83 % 0.00 in /  0 mm 93 W/m2
11:01 55.4 °F /  13 °C 50.3 °F /  10.2 °C 29.56 in /  1000.9 hPa WSW 14.0 mph /  22.5 km/h 28.0 mph /  45.1 km/h 83 % 0.00 in /  0 mm 174 W/m2
11:06 55.6 °F /  13.1 °C 50.2 °F /  10.1 °C 29.56 in /  1000.9 hPa WSW 17.0 mph /  27.4 km/h 29.0 mph /  46.7 km/h 82 % 0.00 in /  0 mm 137 W/m2
11:11 55.8 °F /  13.2 °C 50.3 °F /  10.2 °C 29.55 in /  1000.6 hPa WSW 17.0 mph /  27.4 km/h 29.0 mph /  46.7 km/h 82 % 0.00 in /  0 mm 323 W/m2
11:16 56.5 °F /  13.6 °C 51.1 °F /  10.6 °C 29.55 in /  1000.6 hPa WSW 15.0 mph /  24.1 km/h 29.0 mph /  46.7 km/h 82 % 0.00 in /  0 mm 285 W/m2
11:21 57.4 °F /  14.1 °C 50.9 °F /  10.5 °C 29.55 in /  1000.6 hPa WSW 17.0 mph /  27.4 km/h 34.0 mph /  54.7 km/h 79 % 0.00 in /  0 mm 617 W/m2
11:26 57.6 °F /  14.2 °C 50.8 °F /  10.4 °C 29.54 in /  1000.2 hPa WSW 22.0 mph /  35.4 km/h 37.0 mph /  59.5 km/h 78 % 0.00 in /  0 mm 638 W/m2
11:31 57.6 °F /  14.2 °C 51.1 °F /  10.6 °C 29.54 in /  1000.2 hPa WSW 21.0 mph /  33.8 km/h 37.0 mph /  59.5 km/h 79 % 0.00 in /  0 mm 642 W/m2
11:36 57.9 °F /  14.4 °C 51.4 °F /  10.8 °C 29.55 in /  1000.6 hPa WSW 18.0 mph /  29 km/h 33.0 mph /  53.1 km/h 79 % 0.00 in /  0 mm 677 W/m2
11:41 58.1 °F /  14.5 °C 51.3 °F /  10.7 °C 29.54 in /  1000.2 hPa WSW 19.0 mph /  30.6 km/h 35.0 mph /  56.3 km/h 78 % 0.00 in /  0 mm 661 W/m2
11:47 57.9 °F /  14.4 °C 51.8 °F /  11 °C 29.54 in /  1000.2 hPa WSW 19.0 mph /  30.6 km/h 35.0 mph /  56.3 km/h 80 % 0.00 in /  0 mm 413 W/m2
11:52 57.7 °F /  14.3 °C 51.6 °F /  10.9 °C 29.55 in /  1000.6 hPa West 18.0 mph /  29 km/h 33.0 mph /  53.1 km/h 80 % 0.00 in /  0 mm 656 W/m2
11:57 57.6 °F /  14.2 °C 51.8 °F /  11 °C 29.54 in /  1000.2 hPa WSW 18.0 mph /  29 km/h 34.0 mph /  54.7 km/h 81 % 0.00 in /  0 mm 643 W/m2
12:02 57.9 °F /  14.4 °C 51.4 °F /  10.8 °C 29.55 in /  1000.6 hPa WSW 20.0 mph /  32.2 km/h 34.0 mph /  54.7 km/h 79 % 0.00 in /  0 mm 661 W/m2
12:07 57.9 °F /  14.4 °C 51.1 °F /  10.6 °C 29.54 in /  1000.2 hPa WSW 23.0 mph /  37 km/h 39.0 mph /  62.8 km/h 78 % 0.00 in /  0 mm 647 W/m2
12:12 57.9 °F /  14.4 °C 51.4 °F /  10.8 °C 29.54 in /  1000.2 hPa WSW 23.0 mph /  37 km/h 39.0 mph /  62.8 km/h 79 % 0.00 in /  0 mm 656 W/m2
12:17 58.1 °F /  14.5 °C 51.3 °F /  10.7 °C 29.54 in /  1000.2 hPa WSW 22.0 mph /  35.4 km/h 37.0 mph /  59.5 km/h 78 % 0.00 in /  0 mm 650 W/m2
12:22 58.3 °F /  14.6 °C 51.4 °F /  10.8 °C 29.54 in /  1000.2 hPa West 20.0 mph /  32.2 km/h 36.0 mph /  57.9 km/h 78 % 0.00 in /  0 mm 649 W/m2
12:27 58.5 °F /  14.7 °C 51.6 °F /  10.9 °C 29.54 in /  1000.2 hPa West 19.0 mph /  30.6 km/h 31.0 mph /  49.9 km/h 78 % 0.00 in /  0 mm 659 W/m2
12:32 58.6 °F /  14.8 °C 51.4 °F /  10.8 °C 29.55 in /  1000.6 hPa West 19.0 mph /  30.6 km/h 31.0 mph /  49.9 km/h 77 % 0.00 in /  0 mm 689 W/m2
12:37 58.6 °F /  14.8 °C 51.4 °F /  10.8 °C 29.55 in /  1000.6 hPa West 21.0 mph /  33.8 km/h 34.0 mph /  54.7 km/h 77 % 0.00 in /  0 mm 724 W/m2
12:42 58.6 °F /  14.8 °C 51.4 °F /  10.8 °C 29.54 in /  1000.2 hPa West 22.0 mph /  35.4 km/h 34.0 mph /  54.7 km/h 77 % 0.00 in /  0 mm 545 W/m2
12:47 58.6 °F /  14.8 °C 51.4 °F /  10.8 °C 29.54 in /  1000.2 hPa West 21.0 mph /  33.8 km/h 32.0 mph /  51.5 km/h 77 % 0.00 in /  0 mm 714 W/m2
12:52 58.5 °F /  14.7 °C 51.3 °F /  10.7 °C 29.53 in /  999.9 hPa West 22.0 mph /  35.4 km/h 36.0 mph /  57.9 km/h 77 % 0.00 in /  0 mm 657 W/m2
12:57 58.1 °F /  14.5 °C 51.3 °F /  10.7 °C 29.53 in /  999.9 hPa West 24.0 mph /  38.6 km/h 41.0 mph /  66 km/h 78 % 0.00 in /  0 mm 538 W/m2
13:02 58.1 °F /  14.5 °C 51.3 °F /  10.7 °C 29.53 in /  999.9 hPa West 24.0 mph /  38.6 km/h 41.0 mph /  66 km/h 78 % 0.00 in /  0 mm 726 W/m2
13:07 57.7 °F /  14.3 °C 50.9 °F /  10.5 °C 29.53 in /  999.9 hPa West 23.0 mph /  37 km/h 39.0 mph /  62.8 km/h 78 % 0.00 in /  0 mm 394 W/m2
13:12 57.7 °F /  14.3 °C 51.3 °F /  10.7 °C 29.53 in /  999.9 hPa West 21.0 mph /  33.8 km/h 34.0 mph /  54.7 km/h 79 % 0.00 in /  0 mm 621 W/m2
13:17 58.1 °F /  14.5 °C 51.6 °F /  10.9 °C 29.54 in /  1000.2 hPa West 20.0 mph /  32.2 km/h 33.0 mph /  53.1 km/h 79 % 0.00 in /  0 mm 631 W/m2
13:22 58.1 °F /  14.5 °C 51.3 °F /  10.7 °C 29.54 in /  1000.2 hPa West 21.0 mph /  33.8 km/h 37.0 mph /  59.5 km/h 78 % 0.00 in /  0 mm 564 W/m2
13:27 58.1 °F /  14.5 °C 50.9 °F /  10.5 °C 29.53 in /  999.9 hPa West 23.0 mph /  37 km/h 37.0 mph /  59.5 km/h 77 % 0.00 in /  0 mm 584 W/m2
13:32 58.1 °F /  14.5 °C 51.3 °F /  10.7 °C 29.54 in /  1000.2 hPa West 23.0 mph /  37 km/h 36.0 mph /  57.9 km/h 78 % 0.00 in /  0 mm 610 W/m2
13:37 58.3 °F /  14.6 °C 51.1 °F /  10.6 °C 29.53 in /  999.9 hPa West 22.0 mph /  35.4 km/h 39.0 mph /  62.8 km/h 77 % 0.00 in /  0 mm 610 W/m2
13:42 58.3 °F /  14.6 °C 51.1 °F /  10.6 °C 29.54 in /  1000.2 hPa West 21.0 mph /  33.8 km/h 39.0 mph /  62.8 km/h 77 % 0.00 in /  0 mm 603 W/m2
13:47 58.1 °F /  14.5 °C 51.3 °F /  10.7 °C 29.52 in /  999.5 hPa West 22.0 mph /  35.4 km/h 37.0 mph /  59.5 km/h 78 % 0.00 in /  0 mm 613 W/m2
13:52 58.3 °F /  14.6 °C 51.4 °F /  10.8 °C 29.52 in /  999.5 hPa West 22.0 mph /  35.4 km/h 41.0 mph /  66 km/h 78 % 0.00 in /  0 mm 615 W/m2
13:57 58.1 °F /  14.5 °C 51.3 °F /  10.7 °C 29.52 in /  999.5 hPa West 23.0 mph /  37 km/h 41.0 mph /  66 km/h 78 % 0.00 in /  0 mm 568 W/m2
14:02 57.7 °F /  14.3 °C 50.9 °F /  10.5 °C 29.52 in /  999.5 hPa West 25.0 mph /  40.2 km/h 40.0 mph /  64.4 km/h 78 % 0.00 in /  0 mm 548 W/m2
14:07 57.7 °F /  14.3 °C 51.3 °F /  10.7 °C 29.52 in /  999.5 hPa West 23.0 mph /  37 km/h 40.0 mph /  64.4 km/h 79 % 0.00 in /  0 mm 338 W/m2
14:12 57.6 °F /  14.2 °C 51.1 °F /  10.6 °C 29.52 in /  999.5 hPa West 21.0 mph /  33.8 km/h 34.0 mph /  54.7 km/h 79 % 0.00 in /  0 mm 540 W/m2
14:17 57.6 °F /  14.2 °C 51.1 °F /  10.6 °C 29.52 in /  999.5 hPa West 21.0 mph /  33.8 km/h 38.0 mph /  61.2 km/h 79 % 0.00 in /  0 mm 404 W/m2
14:22 57.6 °F /  14.2 °C 51.1 °F /  10.6 °C 29.52 in /  999.5 hPa West 22.0 mph /  35.4 km/h 38.0 mph /  61.2 km/h 79 % 0.00 in /  0 mm 396 W/m2
14:27 57.6 °F /  14.2 °C 51.1 °F /  10.6 °C 29.52 in /  999.5 hPa West 21.0 mph /  33.8 km/h 37.0 mph /  59.5 km/h 79 % 0.00 in /  0 mm 420 W/m2
14:32 57.4 °F /  14.1 °C 51.3 °F /  10.7 °C 29.53 in /  999.9 hPa West 20.0 mph /  32.2 km/h 37.0 mph /  59.5 km/h 80 % 0.00 in /  0 mm 343 W/m2
14:37 57.2 °F /  14 °C 51.1 °F /  10.6 °C 29.52 in /  999.5 hPa West 21.0 mph /  33.8 km/h 37.0 mph /  59.5 km/h 80 % 0.00 in /  0 mm 360 W/m2
14:42 57.2 °F /  14 °C 51.1 °F /  10.6 °C 29.52 in /  999.5 hPa WSW 20.0 mph /  32.2 km/h 37.0 mph /  59.5 km/h 80 % 0.00 in /  0 mm 392 W/m2
14:47 57.4 °F /  14.1 °C 51.3 °F /  10.7 °C 29.52 in /  999.5 hPa WSW 18.0 mph /  29 km/h 31.0 mph /  49.9 km/h 80 % 0.00 in /  0 mm 373 W/m2
14:52 57.6 °F /  14.2 °C 51.4 °F /  10.8 °C 29.52 in /  999.5 hPa WSW 19.0 mph /  30.6 km/h 33.0 mph /  53.1 km/h 80 % 0.00 in /  0 mm 454 W/m2
14:57 57.7 °F /  14.3 °C 51.6 °F /  10.9 °C 29.52 in /  999.5 hPa West 20.0 mph /  32.2 km/h 33.0 mph /  53.1 km/h 80 % 0.00 in /  0 mm 452 W/m2
15:02 58.3 °F /  14.6 °C 51.8 °F /  11 °C 29.52 in /  999.5 hPa West 17.0 mph /  27.4 km/h 31.0 mph /  49.9 km/h 79 % 0.00 in /  0 mm 462 W/m2
15:07 58.5 °F /  14.7 °C 51.6 °F /  10.9 °C 29.52 in /  999.5 hPa WSW 15.0 mph /  24.1 km/h 28.0 mph /  45.1 km/h 78 % 0.00 in /  0 mm 401 W/m2
15:12 58.6 °F /  14.8 °C 51.8 °F /  11 °C 29.52 in /  999.5 hPa West 17.0 mph /  27.4 km/h 28.0 mph /  45.1 km/h 78 % 0.00 in /  0 mm 425 W/m2
15:17 58.5 °F /  14.7 °C 51.6 °F /  10.9 °C 29.52 in /  999.5 hPa West 19.0 mph /  30.6 km/h 37.0 mph /  59.5 km/h 78 % 0.00 in /  0 mm 425 W/m2
15:22 58.3 °F /  14.6 °C 51.4 °F /  10.8 °C 29.52 in /  999.5 hPa West 20.0 mph /  32.2 km/h 37.0 mph /  59.5 km/h 78 % 0.00 in /  0 mm 399 W/m2
15:27 58.3 °F /  14.6 °C 51.4 °F /  10.8 °C 29.52 in /  999.5 hPa West 18.0 mph /  29 km/h 33.0 mph /  53.1 km/h 78 % 0.00 in /  0 mm 399 W/m2
15:32 58.3 °F /  14.6 °C 51.4 °F /  10.8 °C 29.52 in /  999.5 hPa West 18.0 mph /  29 km/h 30.0 mph /  48.3 km/h 78 % 0.00 in /  0 mm 403 W/m2
15:37 58.3 °F /  14.6 °C 51.4 °F /  10.8 °C 29.52 in /  999.5 hPa West 17.0 mph /  27.4 km/h 29.0 mph /  46.7 km/h 78 % 0.00 in /  0 mm 327 W/m2
15:42 58.3 °F /  14.6 °C 51.4 °F /  10.8 °C 29.53 in /  999.9 hPa West 16.0 mph /  25.7 km/h 29.0 mph /  46.7 km/h 78 % 0.00 in /  0 mm 236 W/m2
15:47 58.3 °F /  14.6 °C 51.4 °F /  10.8 °C 29.52 in /  999.5 hPa West 15.0 mph /  24.1 km/h 26.0 mph /  41.8 km/h 78 % 0.00 in /  0 mm 301 W/m2
15:52 57.9 °F /  14.4 °C 51.1 °F /  10.6 °C 29.52 in /  999.5 hPa WSW 17.0 mph /  27.4 km/h 33.0 mph /  53.1 km/h 78 % 0.00 in /  0 mm 264 W/m2
15:53 57.9 °F /  14.4 °C 51.4 °F /  10.8 °C 29.52 in /  999.5 hPa West 17.0 mph /  27.4 km/h 33.0 mph /  53.1 km/h 79 % 0.00 in /  0 mm 232 W/m2
15:58 57.9 °F /  14.4 °C 51.4 °F /  10.8 °C 29.53 in /  999.9 hPa West 16.0 mph /  25.7 km/h 33.0 mph /  53.1 km/h 79 % 0.00 in /  0 mm 339 W/m2
16:03 58.3 °F /  14.6 °C 51.4 °F /  10.8 °C 29.53 in /  999.9 hPa West 12.0 mph /  19.3 km/h 26.0 mph /  41.8 km/h 78 % 0.00 in /  0 mm 306 W/m2
16:08 58.5 °F /  14.7 °C 51.6 °F /  10.9 °C 29.53 in /  999.9 hPa West 14.0 mph /  22.5 km/h 26.0 mph /  41.8 km/h 78 % 0.00 in /  0 mm 281 W/m2
16:13 58.3 °F /  14.6 °C 51.1 °F /  10.6 °C 29.53 in /  999.9 hPa West 17.0 mph /  27.4 km/h 30.0 mph /  48.3 km/h 77 % 0.00 in /  0 mm 269 W/m2
16:18 58.1 °F /  14.5 °C 50.9 °F /  10.5 °C 29.53 in /  999.9 hPa West 17.0 mph /  27.4 km/h 30.0 mph /  48.3 km/h 77 % 0.00 in /  0 mm 272 W/m2
16:23 58.1 °F /  14.5 °C 51.3 °F /  10.7 °C 29.53 in /  999.9 hPa West 15.0 mph /  24.1 km/h 28.0 mph /  45.1 km/h 78 % 0.00 in /  0 mm 234 W/m2
16:28 58.1 °F /  14.5 °C 51.3 °F /  10.7 °C 29.53 in /  999.9 hPa West 14.0 mph /  22.5 km/h 24.0 mph /  38.6 km/h 78 % 0.00 in /  0 mm 225 W/m2
16:33 57.9 °F /  14.4 °C 51.4 °F /  10.8 °C 29.53 in /  999.9 hPa West 16.0 mph /  25.7 km/h 27.0 mph /  43.5 km/h 79 % 0.00 in /  0 mm 209 W/m2
16:38 57.7 °F /  14.3 °C 51.3 °F /  10.7 °C 29.53 in /  999.9 hPa West 15.0 mph /  24.1 km/h 27.0 mph /  43.5 km/h 79 % 0.00 in /  0 mm 211 W/m2
16:44 57.9 °F /  14.4 °C 51.4 °F /  10.8 °C 29.53 in /  999.9 hPa West 13.0 mph /  20.9 km/h 24.0 mph /  38.6 km/h 79 % 0.00 in /  0 mm 202 W/m2
16:49 57.9 °F /  14.4 °C 51.4 °F /  10.8 °C 29.54 in /  1000.2 hPa West 13.0 mph /  20.9 km/h 24.0 mph /  38.6 km/h 79 % 0.00 in /  0 mm 197 W/m2
16:53 57.6 °F /  14.2 °C 51.1 °F /  10.6 °C 29.54 in /  1000.2 hPa West 13.0 mph /  20.9 km/h 27.0 mph /  43.5 km/h 79 % 0.00 in /  0 mm 120 W/m2
16:54 57.6 °F /  14.2 °C 51.1 °F /  10.6 °C 29.54 in /  1000.2 hPa West 13.0 mph /  20.9 km/h 27.0 mph /  43.5 km/h 79 % 0.00 in /  0 mm 120 W/m2
16:59 57.4 °F /  14.1 °C 51.3 °F /  10.7 °C 29.54 in /  1000.2 hPa West 16.0 mph /  25.7 km/h 27.0 mph /  43.5 km/h 80 % 0.00 in /  0 mm 162 W/m2
17:04 57.0 °F /  13.9 °C 50.9 °F /  10.5 °C 29.55 in /  1000.6 hPa West 16.0 mph /  25.7 km/h 25.0 mph /  40.2 km/h 80 % 0.00 in /  0 mm 141 W/m2
17:09 56.8 °F /  13.8 °C 51.1 °F /  10.6 °C 29.55 in /  1000.6 hPa West 15.0 mph /  24.1 km/h 25.0 mph /  40.2 km/h 81 % 0.00 in /  0 mm 70 W/m2
17:14 56.3 °F /  13.5 °C 50.9 °F /  10.5 °C 29.56 in /  1000.9 hPa West 15.0 mph /  24.1 km/h 26.0 mph /  41.8 km/h 82 % 0.00 in /  0 mm 21 W/m2
17:19 56.1 °F /  13.4 °C 51.0 °F /  10.6 °C 29.56 in /  1000.9 hPa West 13.0 mph /  20.9 km/h 26.0 mph /  41.8 km/h 83 % 0.00 in /  0 mm 14 W/m2
17:24 55.8 °F /  13.2 °C 50.7 °F /  10.4 °C 29.56 in /  1000.9 hPa West 13.0 mph /  20.9 km/h 26.0 mph /  41.8 km/h 83 % 0.00 in /  0 mm 28 W/m2
17:29 55.8 °F /  13.2 °C 51.0 °F /  10.6 °C 29.57 in /  1001.2 hPa West 14.0 mph /  22.5 km/h 26.0 mph /  41.8 km/h 84 % 0.00 in /  0 mm 16 W/m2
17:34 55.6 °F /  13.1 °C 50.8 °F /  10.4 °C 29.57 in /  1001.2 hPa West 10.0 mph /  16.1 km/h 23.0 mph /  37 km/h 84 % 0.00 in /  0 mm 16 W/m2
17:39 55.4 °F /  13 °C 50.6 °F /  10.3 °C 29.57 in /  1001.2 hPa West 9.0 mph /  14.5 km/h 18.0 mph /  29 km/h 84 % 0.00 in /  0 mm 25 W/m2
17:44 55.4 °F /  13 °C 50.6 °F /  10.3 °C 29.58 in /  1001.6 hPa WNW 9.0 mph /  14.5 km/h 18.0 mph /  29 km/h 84 % 0.00 in /  0 mm 21 W/m2
17:49 55.2 °F /  12.9 °C 50.5 °F /  10.3 °C 29.58 in /  1001.6 hPa West 8.0 mph /  12.9 km/h 18.0 mph /  29 km/h 84 % 0.00 in /  0 mm 28 W/m2
17:54 55.2 °F /  12.9 °C 50.5 °F /  10.3 °C 29.58 in /  1001.6 hPa WSW 9.0 mph /  14.5 km/h 18.0 mph /  29 km/h 84 % 0.00 in /  0 mm 12 W/m2
17:59 55.0 °F /  12.8 °C 50.0 °F /  10 °C 29.58 in /  1001.6 hPa West 10.0 mph /  16.1 km/h 16.0 mph /  25.7 km/h 83 % 0.00 in /  0 mm 9 W/m2
18:04 54.9 °F /  12.7 °C 49.8 °F /  9.9 °C 29.59 in /  1001.9 hPa West 9.0 mph /  14.5 km/h 16.0 mph /  25.7 km/h 83 % 0.00 in /  0 mm 7 W/m2
18:09 54.7 °F /  12.6 °C 49.9 °F /  9.9 °C 29.59 in /  1001.9 hPa West 9.0 mph /  14.5 km/h 16.0 mph /  25.7 km/h 84 % 0.00 in /  0 mm 5 W/m2
18:14 54.5 °F /  12.5 °C 49.8 °F /  9.9 °C 29.59 in /  1001.9 hPa West 8.0 mph /  12.9 km/h 14.0 mph /  22.5 km/h 84 % 0.00 in /  0 mm 0 W/m2
18:19 54.3 °F /  12.4 °C 49.6 °F /  9.8 °C 29.59 in /  1001.9 hPa WNW 7.0 mph /  11.3 km/h 14.0 mph /  22.5 km/h 84 % 0.00 in /  0 mm 0 W/m2
18:24 54.1 °F /  12.3 °C 49.4 °F /  9.7 °C 29.59 in /  1001.9 hPa West 5.0 mph /  8 km/h 9.0 mph /  14.5 km/h 84 % 0.00 in /  0 mm 0 W/m2
18:29 54.0 °F /  12.2 °C 49.2 °F /  9.6 °C 29.60 in /  1002.3 hPa West 4.0 mph /  6.4 km/h 8.0 mph /  12.9 km/h 84 % 0.00 in /  0 mm 0 W/m2
18:34 53.8 °F /  12.1 °C 49.1 °F /  9.5 °C 29.60 in /  1002.3 hPa WNW 2.0 mph /  3.2 km/h 7.0 mph /  11.3 km/h 84 % 0.00 in /  0 mm 0 W/m2
18:39 53.6 °F /  12 °C 48.9 °F /  9.4 °C 29.60 in /  1002.3 hPa WSW 3.0 mph /  4.8 km/h 7.0 mph /  11.3 km/h 84 % 0.00 in /  0 mm 0 W/m2
18:45 53.4 °F /  11.9 °C 48.7 °F /  9.3 °C 29.61 in /  1002.6 hPa WSW 4.0 mph /  6.4 km/h 8.0 mph /  12.9 km/h 84 % 0.00 in /  0 mm 0 W/m2
18:49 53.1 °F /  11.7 °C 48.4 °F /  9.1 °C 29.62 in /  1002.9 hPa WSW 4.0 mph /  6.4 km/h 11.0 mph /  17.7 km/h 84 % 0.00 in /  0 mm 0 W/m2
18:55 52.9 °F /  11.6 °C 48.2 °F /  9 °C 29.62 in /  1002.9 hPa WSW 5.0 mph /  8 km/h 11.0 mph /  17.7 km/h 84 % 0.00 in /  0 mm 0 W/m2
19:00 52.5 °F /  11.4 °C 47.8 °F /  8.8 °C 29.62 in /  1002.9 hPa WSW 6.0 mph /  9.7 km/h 11.0 mph /  17.7 km/h 84 % 0.00 in /  0 mm 0 W/m2
19:05 52.5 °F /  11.4 °C 47.8 °F /  8.8 °C 29.63 in /  1003.3 hPa WSW 5.0 mph /  8 km/h 10.0 mph /  16.1 km/h 84 % 0.00 in /  0 mm 0 W/m2
19:10 52.3 °F /  11.3 °C 48.0 °F /  8.9 °C 29.63 in /  1003.3 hPa WSW 4.0 mph /  6.4 km/h 8.0 mph /  12.9 km/h 85 % 0.00 in /  0 mm 0 W/m2
19:15 52.3 °F /  11.3 °C 47.6 °F /  8.7 °C 29.64 in /  1003.6 hPa WSW 4.0 mph /  6.4 km/h 8.0 mph /  12.9 km/h 84 % 0.00 in /  0 mm 0 W/m2
19:20 52.3 °F /  11.3 °C 47.6 °F /  8.7 °C 29.63 in /  1003.3 hPa West 5.0 mph /  8 km/h 8.0 mph /  12.9 km/h 84 % 0.00 in /  0 mm 0 W/m2
19:25 52.3 °F /  11.3 °C 47.6 °F /  8.7 °C 29.63 in /  1003.3 hPa WNW 4.0 mph /  6.4 km/h 8.0 mph /  12.9 km/h 84 % 0.00 in /  0 mm 0 W/m2
19:30 52.2 °F /  11.2 °C 47.2 °F /  8.4 °C 29.63 in /  1003.3 hPa WNW 4.0 mph /  6.4 km/h 9.0 mph /  14.5 km/h 83 % 0.00 in /  0 mm 0 W/m2
19:35 52.2 °F /  11.2 °C 47.2 °F /  8.4 °C 29.63 in /  1003.3 hPa WNW 6.0 mph /  9.7 km/h 9.0 mph /  14.5 km/h 83 % 0.00 in /  0 mm 0 W/m2
19:40 52.2 °F /  11.2 °C 46.8 °F /  8.2 °C 29.63 in /  1003.3 hPa WNW 7.0 mph /  11.3 km/h 11.0 mph /  17.7 km/h 82 % 0.00 in /  0 mm 0 W/m2
19:45 52.2 °F /  11.2 °C 46.8 °F /  8.2 °C 29.62 in /  1002.9 hPa WNW 7.0 mph /  11.3 km/h 11.0 mph /  17.7 km/h 82 % 0.00 in /  0 mm 0 W/m2
19:50 52.0 °F /  11.1 °C 46.7 °F /  8.2 °C 29.62 in /  1002.9 hPa WNW 8.0 mph /  12.9 km/h 13.0 mph /  20.9 km/h 82 % 0.00 in /  0 mm 0 W/m2
19:55 52.0 °F /  11.1 °C 46.7 °F /  8.2 °C 29.62 in /  1002.9 hPa West 8.0 mph /  12.9 km/h 13.0 mph /  20.9 km/h 82 % 0.00 in /  0 mm 0 W/m2
20:00 51.8 °F /  11 °C 46.8 °F /  8.2 °C 29.62 in /  1002.9 hPa West 7.0 mph /  11.3 km/h 12.0 mph /  19.3 km/h 83 % 0.00 in /  0 mm 0 W/m2
20:05 51.4 °F /  10.8 °C 46.4 °F /  8 °C 29.62 in /  1002.9 hPa West 7.0 mph /  11.3 km/h 11.0 mph /  17.7 km/h 83 % 0.00 in /  0 mm 0 W/m2
20:10 51.3 °F /  10.7 °C 46.3 °F /  7.9 °C 29.62 in /  1002.9 hPa West 8.0 mph /  12.9 km/h 14.0 mph /  22.5 km/h 83 % 0.00 in /  0 mm 0 W/m2
20:15 51.3 °F /  10.7 °C 46.6 °F /  8.1 °C 29.62 in /  1002.9 hPa West 8.0 mph /  12.9 km/h 14.0 mph /  22.5 km/h 84 % 0.00 in /  0 mm 0 W/m2
20:20 51.1 °F /  10.6 °C 46.4 °F /  8 °C 29.62 in /  1002.9 hPa WNW 7.0 mph /  11.3 km/h 11.0 mph /  17.7 km/h 84 % 0.00 in /  0 mm 0 W/m2
20:25 51.1 °F /  10.6 °C 46.4 °F /  8 °C 29.62 in /  1002.9 hPa WNW 7.0 mph /  11.3 km/h 11.0 mph /  17.7 km/h 84 % 0.00 in /  0 mm 0 W/m2
20:30 50.7 °F /  10.4 °C 46.1 °F /  7.8 °C 29.62 in /  1002.9 hPa West 6.0 mph /  9.7 km/h 8.0 mph /  12.9 km/h 84 % 0.00 in /  0 mm 0 W/m2
20:35 50.5 °F /  10.3 °C 46.2 °F /  7.9 °C 29.62 in /  1002.9 hPa West 6.0 mph /  9.7 km/h 8.0 mph /  12.9 km/h 85 % 0.00 in /  0 mm 0 W/m2
20:40 50.4 °F /  10.2 °C 46.0 °F /  7.8 °C 29.62 in /  1002.9 hPa West 6.0 mph /  9.7 km/h 9.0 mph /  14.5 km/h 85 % 0.00 in /  0 mm 0 W/m2
20:45 50.4 °F /  10.2 °C 46.0 °F /  7.8 °C 29.62 in /  1002.9 hPa West 6.0 mph /  9.7 km/h 9.0 mph /  14.5 km/h 85 % 0.00 in /  0 mm 0 W/m2
20:50 50.2 °F /  10.1 °C 46.2 °F /  7.9 °C 29.62 in /  1002.9 hPa WNW 6.0 mph /  9.7 km/h 10.0 mph /  16.1 km/h 86 % 0.00 in /  0 mm 0 W/m2
20:55 50.2 °F /  10.1 °C 46.2 °F /  7.9 °C 29.62 in /  1002.9 hPa WNW 6.0 mph /  9.7 km/h 10.0 mph /  16.1 km/h 86 % 0.00 in /  0 mm 0 W/m2
21:00 50.2 °F /  10.1 °C 46.2 °F /  7.9 °C 29.62 in /  1002.9 hPa WNW 6.0 mph /  9.7 km/h 9.0 mph /  14.5 km/h 86 % 0.00 in /  0 mm 0 W/m2
21:05 50.2 °F /  10.1 °C 46.2 °F /  7.9 °C 29.62 in /  1002.9 hPa WNW 4.0 mph /  6.4 km/h 9.0 mph /  14.5 km/h 86 % 0.00 in /  0 mm 0 W/m2
21:10 50.0 °F /  10 °C 46.0 °F /  7.8 °C 29.62 in /  1002.9 hPa WNW 2.0 mph /  3.2 km/h 5.0 mph /  8 km/h 86 % 0.00 in /  0 mm 0 W/m2
21:15 50.0 °F /  10 °C 46.3 °F /  7.9 °C 29.62 in /  1002.9 hPa WNW 1.0 mph /  1.6 km/h 5.0 mph /  8 km/h 87 % 0.00 in /  0 mm 0 W/m2
21:20 50.0 °F /  10 °C 46.3 °F /  7.9 °C 29.62 in /  1002.9 hPa Calm   1.0 mph /  1.6 km/h 87 % 0.00 in /  0 mm 0 W/m2
21:25 49.8 °F /  9.9 °C 46.1 °F /  7.8 °C 29.62 in /  1002.9 hPa Calm     87 % 0.00 in /  0 mm 0 W/m2
21:30 49.8 °F /  9.9 °C 46.1 °F /  7.8 °C 29.62 in /  1002.9 hPa Calm     87 % 0.00 in /  0 mm 0 W/m2
21:35 49.8 °F /  9.9 °C 46.4 °F /  8 °C 29.62 in /  1002.9 hPa Calm     88 % 0.00 in /  0 mm 0 W/m2
21:40 49.6 °F /  9.8 °C 46.2 °F /  7.9 °C 29.62 in /  1002.9 hPa Calm     88 % 0.00 in /  0 mm 0 W/m2
21:46 49.8 °F /  9.9 °C 46.4 °F /  8 °C 29.62 in /  1002.9 hPa Calm     88 % 0.00 in /  0 mm 0 W/m2
21:51 49.8 °F /  9.9 °C 46.7 °F /  8.2 °C 29.62 in /  1002.9 hPa Calm   1.0 mph /  1.6 km/h 89 % 0.00 in /  0 mm 0 W/m2
22:08 50.0 °F /  10 °C 46.9 °F /  8.3 °C 29.62 in /  1002.9 hPa Calm     89 % 0.00 in /  0 mm 0 W/m2
22:13 50.0 °F /  10 °C 46.9 °F /  8.3 °C 29.61 in /  1002.6 hPa Calm     89 % 0.00 in /  0 mm 0 W/m2
22:18 50.0 °F /  10 °C 46.9 °F /  8.3 °C 29.61 in /  1002.6 hPa Calm     89 % 0.00 in /  0 mm 0 W/m2
22:23 50.2 °F /  10.1 °C 47.1 °F /  8.4 °C 29.61 in /  1002.6 hPa Calm   1.0 mph /  1.6 km/h 89 % 0.00 in /  0 mm 0 W/m2
22:29 50.2 °F /  10.1 °C 47.1 °F /  8.4 °C 29.61 in /  1002.6 hPa Calm   2.0 mph /  3.2 km/h 89 % 0.00 in /  0 mm 0 W/m2
22:34 50.2 °F /  10.1 °C 47.4 °F /  8.6 °C 29.61 in /  1002.6 hPa Calm   3.0 mph /  4.8 km/h 90 % 0.00 in /  0 mm 0 W/m2
22:39 50.2 °F /  10.1 °C 47.4 °F /  8.6 °C 29.60 in /  1002.3 hPa Calm   3.0 mph /  4.8 km/h 90 % 0.00 in /  0 mm 0 W/m2
22:44 50.2 °F /  10.1 °C 47.4 °F /  8.6 °C 29.60 in /  1002.3 hPa Calm   1.0 mph /  1.6 km/h 90 % 0.00 in /  0 mm 0 W/m2
22:49 50.2 °F /  10.1 °C 47.4 °F /  8.6 °C 29.61 in /  1002.6 hPa Calm   1.0 mph /  1.6 km/h 90 % 0.00 in /  0 mm 0 W/m2
22:54 50.4 °F /  10.2 °C 47.8 °F /  8.8 °C 29.61 in /  1002.6 hPa Calm   1.0 mph /  1.6 km/h 91 % 0.00 in /  0 mm 0 W/m2
22:59 50.4 °F /  10.2 °C 47.8 °F /  8.8 °C 29.61 in /  1002.6 hPa Calm     91 % 0.00 in /  0 mm 0 W/m2
23:04 50.5 °F /  10.3 °C 48.0 °F /  8.9 °C 29.61 in /  1002.6 hPa Calm     91 % 0.00 in /  0 mm 0 W/m2
23:09 50.5 °F /  10.3 °C 48.0 °F /  8.9 °C 29.61 in /  1002.6 hPa Calm     91 % 0.00 in /  0 mm 0 W/m2
23:14 50.5 °F /  10.3 °C 48.0 °F /  8.9 °C 29.61 in /  1002.6 hPa Calm     91 % 0.00 in /  0 mm 0 W/m2
23:19 50.4 °F /  10.2 °C 47.8 °F /  8.8 °C 29.61 in /  1002.6 hPa Calm   1.0 mph /  1.6 km/h 91 % 0.00 in /  0 mm 0 W/m2
23:24 50.4 °F /  10.2 °C 48.1 °F /  8.9 °C 29.61 in /  1002.6 hPa Calm   1.0 mph /  1.6 km/h 92 % 0.00 in /  0 mm 0 W/m2
23:29 50.4 °F /  10.2 °C 48.1 °F /  8.9 °C 29.61 in /  1002.6 hPa Calm   1.0 mph /  1.6 km/h 92 % 0.00 in /  0 mm 0 W/m2
23:34 50.4 °F /  10.2 °C 48.1 °F /  8.9 °C 29.61 in /  1002.6 hPa Calm   2.0 mph /  3.2 km/h 92 % 0.00 in /  0 mm 0 W/m2
23:39 50.2 °F /  10.1 °C 47.9 °F /  8.8 °C 29.61 in /  1002.6 hPa Calm   2.0 mph /  3.2 km/h 92 % 0.00 in /  0 mm 0 W/m2
23:44 50.2 °F /  10.1 °C 47.9 °F /  8.8 °C 29.61 in /  1002.6 hPa WNW 1.0 mph /  1.6 km/h 5.0 mph /  8 km/h 92 % 0.00 in /  0 mm 0 W/m2
23:49 50.2 °F /  10.1 °C 48.2 °F /  9 °C 29.61 in /  1002.6 hPa SSW 1.0 mph /  1.6 km/h 5.0 mph /  8 km/h 93 % 0.00 in /  0 mm 0 W/m2
23:54 50.2 °F /  10.1 °C 48.2 °F /  9 °C 29.61 in /  1002.6 hPa SE 1.0 mph /  1.6 km/h 5.0 mph /  8 km/h 93 % 0.00 in /  0 mm 0 W/m2
23:59 50.2 °F /  10.1 °C 48.2 °F /  9 °C 29.60 in /  1002.3 hPa SE 2.0 mph /  3.2 km/h 5.0 mph /  8 km/h 93 % 0.00 in /  0 mm 0 W/m2
Delerius-Weather
Compliments of Weather Underground - 2.25 mb

Data updates at regular intervals.